Tiempo atmosférico en la estación meteorológica de Ocaña, Toledo (733 m.)



Fecha
DESCASC
Temp. máxima en grados centígrados (hora)
DESCASC
Temp. mínima en grados centígrados (hora)
DESCASC
Temp. media en grados centígrados
DESCASC
Racha de viento máxima en m/sg (hora)
DESCASC
Velocidad máxima media en intervalos de 10 minutos(hora)
DESCASC
Precipitaciones diarias en mm
DESCASC
Precipitaciones de 00:00 a 06:00 en mm
DESCASC
Precipitaciones de 06:00 a 12:00 en mm
DESCASC
Precipitaciones de 12:00 a 18:00 en mm
DESCASC
Precipitaciones de 18:00 a 24:00 en mm
DESCASC
05-04-2020 19.3 (18:20) 7 (08:20) 13.1 9.17 (18:50) 5.83 (18:30) 0 0 0 0 0
04-04-2020 17.3 (15:50) 3.5 (08:00) 10.4 13.06 (13:20) 8.61 (13:20) 0 0 0 0 0
03-04-2020 16.5 (18:00) 4.2 (06:40) 10.3 5.28 (11:30) 3.61 (10:40) 0 0 0 0 0
02-04-2020 15 (16:30) 1.5 (00:00) 8.3 10 (17:40) 6.67 (18:30) 0 0 0 0 0
01-04-2020 14.1 (17:30) 5.6 (00:00) 9.9 9.44 (16:10) 5.83 (13:30) 0.4 0 0.2 0.2 0
31-03-2020 12.2 (16:20) 1.4 (00:00) 6.8 14.17 (12:50) 8.89 (12:50) 21 1.6 5.4 3 11
30-03-2020 10.2 (14:50) 0.8 (00:00) 5.5 10.83 (15:50) 7.78 (16:00) 4.2 0 0.2 0.2 3.8
29-03-2020 17.9 (17:40) 0.4 (00:00) 9.1 5.28 (15:20) 2.78 (14:10) 0 0 0 0 0
28-03-2020 14.5 (16:40) -1 (-00:0) 6.8 6.94 (13:40) 3.89 (13:10) 0 0 0 0 0
27-03-2020 9.3 (16:10) 1.5 (00:00) 5.4 12.5 (15:00) 7.78 (12:50) 0.2 0 0.2 0 0
26-03-2020 15.2 (15:10) 3 (00:00) 9.1 7.78 (15:50) 5.56 (18:40) 0 0 0 0 0
25-03-2020 15.9 (16:30) 2.3 (00:00) 9.1 6.94 (17:20) 3.61 (01:50) 0 0 0 0 0
24-03-2020 13.8 (16:00) 7.3 (00:00) 10.6 11.11 (13:20) 7.5 (13:20) 0.6 0.4 0 0.2 0
23-03-2020 14.6 (14:50) 6.9 (00:00) 10.8 14.17 (15:50) 10 (15:50) 2 0.4 0.8 0.8 0
22-03-2020 12.7 (13:10) 2.1 (07:40) 7.4 8.33 (15:50) 5.83 (14:10) 2.6 0 0 1.6 1
21-03-2020 9.4 (14:50) 5.2 (00:00) 7.3 9.17 (01:20) 5.83 (01:20) 0.4 0 0.4 0 0
20-03-2020 13.7 (16:40) 6.3 (00:00) 10 11.11 (10:10) 7.22 (12:00) 0 0 0 0 0
19-03-2020 14.7 (15:30) 4.7 (00:00) 9.7 9.72 (17:10) 6.11 (13:50) 0 0 0 0 0
18-03-2020 14.7 (16:40) 5.6 (00:00) 10.1 8.61 (14:00) 6.11 (11:50) 0 0 0 0 0
17-03-2020 15.6 (16:50) 0.1 (00:00) 7.9 12.78 (14:10) 8.89 (13:50) 0 0 0 0 0
16-03-2020 9.9 (00:40) 1.2 (00:00) 5.5 10.56 (04:10) 4.72 (06:30) 15.2 9.2 0.2 5.6 0.2
15-03-2020 18.8 (12:40) 8 (00:00) 13.4 15.83 (20:40) 8.33 (21:10) 5.2 0 0 0.2 5
14-03-2020 21.6 (16:50) 5.8 (00:00) 13.7 5.83 (05:00) 3.61 (02:10) 0 0 0 0 0
13-03-2020 22.9 (15:50) 7.6 (06:20) 15.2 6.67 (16:00) 3.06 (23:20) 0 0 0 0 0
12-03-2020 25.8 (14:50) 7.7 (00:00) 16.7 6.39 (12:00) 4.17 (11:20) 0 0 0 0 0
11-03-2020 25.7 (17:00) 5.6 (00:00) 15.7 3.89 (15:10) 2.22 (07:40) 0 0 0 0 0

Gráficas

Temp. máximas Temp. mínimas Temp. medias Precipitaciones Rachas de viento máximas Velocidades máximas media en intervalos de 10 minutos

Datos horarios

Fecha y hora oficial Temperatura (ºC) Velocidad del viento (km/h) Dirección del viento Racha (km/h) Dirección de racha Precipitación (mm) Presión (hPa) Tendencia (hPa) Humedad (%)
2020-04-09 23:00:00 11 9 Sudeste 14 Sudeste 0.6 -- -- 92
2020-04-09 22:00:00 11.3 5 Sudeste 13 Sudeste 0.4 -- -- 92
2020-04-09 21:00:00 11.8 5 Sudeste 15 Sudeste 1.2 -- -- 91
2020-04-09 20:00:00 12.7 8 Sudeste 15 Sudeste 0.2 -- -- 88
2020-04-09 19:00:00 13.4 8 Sudeste 22 Sudeste 0 -- -- 84
2020-04-09 18:00:00 14.9 10 Sur 22 Sudeste 0 -- -- 79
2020-04-09 17:00:00 15.9 10 Sudeste 19 Sudeste 0 -- -- 75
2020-04-09 16:00:00 16 11 Sudeste 15 Sudeste 0 -- -- 69
2020-04-09 15:00:00 14.9 8 Sudeste 19 Este 0 -- -- 68
2020-04-09 14:00:00 14.7 9 Sudeste 14 Sudeste 0 -- -- 67
2020-04-09 13:00:00 13.4 6 Sudeste 13 Sudeste 0 -- -- 65
2020-04-09 12:00:00 12.7 7 Sudeste 16 Sudeste 0 -- -- 65
2020-04-09 11:00:00 11.4 10 Sudeste 19 Sudeste 0 -- -- 69
2020-04-09 10:00:00 10.6 5 Sudeste 11 Sudeste 0 -- -- 78
2020-04-09 09:00:00 9.3 8 Este 21 Este 0 -- -- 77
2020-04-09 08:00:00 8.9 14 Este 18 Este 0 -- -- 83
2020-04-09 07:00:00 9.3 9 Sudeste 18 Este 0 -- -- 79
2020-04-09 06:00:00 9.4 13 Sudeste 19 Sudeste 0 -- -- 77
2020-04-09 05:00:00 9.9 9 Sudeste 26 Sudeste 0 -- -- 74
2020-04-09 04:00:00 10.5 18 Sudeste 27 Sudeste 0 -- -- 66
2020-04-09 03:00:00 10.9 14 Sudeste 28 Sudeste 0 -- -- 78
2020-04-09 02:00:00 11.3 16 Sudeste 27 Sudeste 0 -- -- 83
2020-04-09 01:00:00 11.9 14 Sudeste 21 Sudeste 0 -- -- 83
2020-04-09 00:00:00 13.3 9 Sudeste 17 Sudeste 0 -- -- 78
2020-04-08 23:00:00 13.3 8 Sudeste 15 Sudeste 0 -- -- 83
2020-04-08 22:00:00 14.5 2 Este -- -- 0 -- -- 80
2020-04-08 21:00:00 15.9 0 Calma 7 Sudoeste 0 -- -- 76
2020-04-08 20:00:00 18.3 6 Sur 10 Sudeste 0 -- -- 68
2020-04-08 19:00:00 20.5 8 Sur 13 Sur 0 -- -- 57
2020-04-08 18:00:00 20.1 5 Sudeste 12 Sudeste 0 -- -- 55
2020-04-08 17:00:00 20.1 5 Este 13 Este 0 -- -- 60
2020-04-08 16:00:00 19.7 6 Este 13 Este 0 -- -- 69
2020-04-08 15:00:00 18.7 6 Sudeste 14 Sudeste 0 -- -- 72
2020-04-08 14:00:00 17.4 7 Sudeste 20 Este 0 -- -- 72
2020-04-08 13:00:00 16.9 7 Sudeste 16 Este 0 -- -- 74
2020-04-08 12:00:00 15.5 11 Este 20 Este 0 -- -- 76
2020-04-08 11:00:00 13.6 14 Este 25 Sudeste 0 -- -- 79
2020-04-08 10:00:00 11.6 13 Sudeste 20 Sudeste 0 -- -- 86
2020-04-08 09:00:00 9.2 12 Sudeste 19 Este 0 -- -- 96
2020-04-08 08:00:00 7.5 7 Sudeste 13 Sudeste 0 -- -- 98
2020-04-08 07:00:00 7.5 7 Sudeste 11 Sudeste 0 -- -- 96
2020-04-08 06:00:00 8.4 8 Sudeste 18 Sudeste 0 -- -- 95
2020-04-08 05:00:00 9.5 11 Sudeste 19 Sudeste 0 -- -- 94
2020-04-08 04:00:00 10.5 12 Sudeste 22 Sudeste 0 -- -- 94
2020-04-08 03:00:00 11.2 12 Sudeste 23 Sudeste 0.2 -- -- 94
2020-04-08 02:00:00 11.9 8 Sudeste 18 Sudeste 0.4 -- -- 95
2020-04-08 01:00:00 12.6 12 Sudeste 19 Sudeste 0 -- -- 93
2020-04-08 00:00:00 13.2 11 Sudeste 17 Sudeste 0 -- -- 94
2020-04-07 23:00:00 12.9 6 Este 9 Este 0 -- -- 95
2020-04-07 22:00:00 12.1 8 Este 9 Este 0 -- -- 94
2020-04-07 21:00:00 13.7 7 Este 14 Sudeste 0 -- -- 90
2020-04-07 20:00:00 15.5 10 Sudeste 18 Sudeste 0 -- -- 85
2020-04-07 19:00:00 16.2 12 Sudeste 19 Sudeste 0 -- -- 84
2020-04-07 18:00:00 16.5 10 Sudeste 20 Sudeste 0.2 -- -- 83
2020-04-07 17:00:00 16.4 16 Sudeste 22 Sudeste 0 -- -- 84
2020-04-07 16:00:00 16.3 0 Calma 12 Sudoeste 0 -- -- 80
2020-04-07 15:00:00 15.6 6 Sur 20 Sudoeste 0.6 -- -- 88
2020-04-07 14:00:00 15.6 5 Sur 18 Sur 0.4 -- -- 85
2020-04-07 13:00:00 16.6 12 Sur 20 Sur 0 -- -- 84
2020-04-07 12:00:00 14.4 9 Sudeste 20 Sudeste 0 -- -- 94
2020-04-07 11:00:00 12.4 10 Sudeste 19 Sudeste 0 -- -- 98
2020-04-07 10:00:00 12 12 Sudeste 18 Sudeste 0 -- -- 99
2020-04-07 09:00:00 11.7 9 Sur 15 Sur 0 -- -- 99
2020-04-07 08:00:00 11.5 7 Sudeste 13 Sur 0 -- -- 99
2020-04-07 07:00:00 11.4 6 Sudeste 13 Este 0 -- -- 99
2020-04-07 06:00:00 10.9 7 Este 13 Sudeste 0.2 -- -- 99
2020-04-07 05:00:00 11.4 8 Sudeste 12 Este 0.4 -- -- 98
2020-04-07 04:00:00 11.6 6 Este 9 Sudeste 1 -- -- 98
2020-04-07 03:00:00 11.6 2 Norte 9 Noroeste 2.8 -- -- 98
2020-04-07 02:00:00 11.9 6 Noroeste 18 Noroeste 1.8 -- -- 97
2020-04-07 01:00:00 12.7 9 Noroeste 19 Noroeste 0.6 -- -- 94
2020-04-07 00:00:00 13.3 5 Sudoeste 7 Sudoeste 0 -- -- 90
2020-04-06 23:00:00 13.2 2 Este -- -- 0 -- -- 89
2020-04-06 22:00:00 14.2 0 Calma 6 Noroeste 0 -- -- 83
2020-04-06 21:00:00 15 3 Noroeste 9 Noroeste 0 -- -- 80
2020-04-06 20:00:00 16.3 3 Oeste 18 Oeste 0 -- -- 76
2020-04-06 19:00:00 17.4 6 Noroeste 13 Oeste 0 -- -- 74
2020-04-06 18:00:00 17.5 8 Sudoeste 23 Sudeste 0 -- -- 72
2020-04-06 17:00:00 17.2 14 Sudeste 27 Sur 0 -- -- 81
2020-04-06 16:00:00 16.5 14 Sur 24 Sur 0 -- -- 84
2020-04-06 15:00:00 17.1 4 Sudoeste 14 Sudoeste 0 -- -- 73
2020-04-06 14:00:00 16.6 8 Oeste 16 Oeste 0 -- -- 76
2020-04-06 13:00:00 15.5 8 Noroeste 18 Sudoeste 0 -- -- 84
2020-04-06 12:00:00 14.1 12 Sur 20 Sudoeste 0 -- -- 95
2020-04-06 11:00:00 12.1 12 Sur 21 Sur 0.4 -- -- 98
2020-04-06 10:00:00 10.8 13 Sur 22 Sudeste 0 -- -- 98
2020-04-06 09:00:00 10.3 11 Sudeste 21 Sudeste 0.6 -- -- 98
2020-04-06 08:00:00 10.4 13 Sur 20 Sur 0 -- -- 96
2020-04-06 07:00:00 10.6 12 Sur 19 Sudeste 0 -- -- 95
2020-04-06 06:00:00 11.3 11 Sur 17 Sudeste 0 -- -- 95
2020-04-06 05:00:00 11.3 9 Sur 13 Sur 0.6 -- -- 94
2020-04-06 04:00:00 11.1 6 Sur 14 Sudeste 0 -- -- 88
2020-04-06 03:00:00 11.1 8 Sudeste 13 Sur 0 -- -- 87
2020-04-06 02:00:00 10.4 9 Sudeste 12 Sur 0 -- -- 85
2020-04-06 01:00:00 10.6 5 Sur 12 Sudeste 0 -- -- 84
2020-04-06 00:00:00 11.4 6 Sur 9 Sur 0 -- -- 78
2020-04-05 23:00:00 12.6 7 Sudoeste 17 Sudoeste 0 -- -- 76
2020-04-05 22:00:00 13.8 8 Sudoeste 22 Sudoeste 0 -- -- 70
2020-04-05 21:00:00 14.4 10 Sudoeste 13 Sudoeste 0 -- -- 67
2020-04-05 20:00:00 16.3 9 Sudoeste 24 Sudoeste 0 -- -- 61
2020-04-05 19:00:00 17.9 17 Sudoeste 33 Sur 0 -- -- 51
2020-04-05 18:00:00 18.3 20 Sur 31 Sur 0 -- -- 51
2020-04-05 17:00:00 18.5 17 Sur 32 Sur 0 -- -- 52
2020-04-05 16:00:00 18.6 11 Sudeste 26 Sur 0 -- -- 56
2020-04-05 15:00:00 18.5 13 Sur 24 Sur 0 -- -- 55
2020-04-05 14:00:00 17 11 Sur 27 Sur 0 -- -- 60
2020-04-05 13:00:00 15.8 14 Sur 26 Sudeste 0 -- -- 66
2020-04-05 12:00:00 13.9 15 Sur 27 Sur 0 -- -- 72
2020-04-05 11:00:00 12.4 16 Sudeste 26 Sudeste 0 -- -- 78
2020-04-05 10:00:00 10.5 15 Sudeste 29 Sudeste 0 -- -- 82
2020-04-05 09:00:00 8.2 17 Sudeste 31 Sudeste 0 -- -- 88
2020-04-05 08:00:00 7.2 12 Sudeste 25 Sudeste 0 -- -- 91
2020-04-05 07:00:00 7.9 14 Sudeste 25 Sudeste 0 -- -- 89
2020-04-05 06:00:00 8.2 15 Sudeste 26 Sudeste 0 -- -- 90
2020-04-05 05:00:00 8.4 12 Sudeste 22 Sudeste 0 -- -- 90
2020-04-05 04:00:00 8.8 13 Sudeste 26 Este 0 -- -- 90
2020-04-05 03:00:00 8.9 13 Sudeste 24 Sudeste 0 -- -- 88
2020-04-05 02:00:00 9.5 16 Sudeste 30 Sudeste 0 -- -- 84
2020-04-05 01:00:00 10 12 Sudeste 24 Sudeste 0 -- -- 81
2020-04-05 00:00:00 10.7 15 Sudeste 35 Sudeste 0 -- -- 75
2020-04-04 23:00:00 11.2 19 Sudeste 38 Sudeste 0 -- -- 72
2020-04-04 22:00:00 11.7 20 Sudeste 39 Sudeste 0 -- -- 67
2020-04-04 21:00:00 12.3 18 Sudeste 35 Sudeste 0 -- -- 64
2020-04-04 20:00:00 13.6 22 Sudeste 39 Sudeste 0 -- -- 60
2020-04-04 19:00:00 14.7 23 Sudeste 36 Sudeste 0 -- -- 57
2020-04-04 18:00:00 15.7 23 Sudeste 36 Sudeste 0 -- -- 54
2020-04-04 17:00:00 16.4 20 Sudeste 35 Sudeste 0 -- -- 52
2020-04-04 16:00:00 17.3 21 Sudeste 36 Sudeste 0 -- -- 50
2020-04-04 15:00:00 16.2 25 Sudeste 39 Este 0 -- -- 50
2020-04-04 14:00:00 15.7 21 Sudeste 47 Sudeste 0 -- -- 53
2020-04-04 13:00:00 15.2 27 Sudeste 46 Sudeste 0 -- -- 56
2020-04-04 12:00:00 13.7 23 Sudeste 37 Sudeste 0 -- -- 65
2020-04-04 11:00:00 11.7 20 Sudeste 28 Este 0 -- -- 75
2020-04-04 10:00:00 8.7 19 Sudeste 30 Este 0 -- -- 87
2020-04-04 09:00:00 5.5 13 Este 20 Este 0 -- -- 97
2020-04-04 08:00:00 3.5 11 Este 18 Sudeste 0 -- -- 95
2020-04-04 07:00:00 3.7 11 Este 16 Sudeste 0 -- -- 95
2020-04-04 06:00:00 4.3 11 Sudeste 21 Sudeste 0 -- -- 92
2020-04-04 05:00:00 4.5 11 Sudeste 21 Este 0 -- -- 89
2020-04-04 04:00:00 5.2 15 Este 22 Este 0 -- -- 85
2020-04-04 03:00:00 5.5 9 Este 15 Este 0 -- -- 81
2020-04-04 02:00:00 5.3 10 Sudeste 14 Este 0 -- -- 85
2020-04-04 01:00:00 6.3 11 Sudeste 13 Este 0 -- -- 81
2020-04-04 00:00:00 6.4 7 Sudeste 12 Sudeste 0 -- -- 81
2020-04-03 23:00:00 6.8 5 Este 6 Este 0 -- -- 78
2020-04-03 22:00:00 8.7 3 Este 5 Este 0 -- -- 70
2020-04-03 21:00:00 11.5 3 Sudeste 8 Sur 0 -- -- 62
2020-04-03 20:00:00 14.3 6 Sur 12 Sur 0 -- -- 52
2020-04-03 19:00:00 15.9 2 Sudeste 10 Sur 0 -- -- 44
2020-04-03 18:00:00 16.5 3 Sudoeste 9 Este 0 -- -- 42
2020-04-03 17:00:00 16 5 Sudoeste 13 Norte 0 -- -- 45
2020-04-03 16:00:00 15.5 4 Sudoeste 11 Sudoeste 0 -- -- 49
2020-04-03 15:00:00 14.4 7 Sudoeste 11 Sudoeste 0 -- -- 51
2020-04-03 14:00:00 13.6 4 Sudoeste 10 Oeste 0 -- -- 52
2020-04-03 13:00:00 12.8 5 Oeste 14 Nordeste 0 -- -- 51
2020-04-03 12:00:00 11.9 11 Este 19 Nordeste 0 -- -- 54
2020-04-03 11:00:00 10.4 10 Este 18 Nordeste 0 -- -- 59
2020-04-03 10:00:00 8 10 Nordeste 14 Nordeste 0 -- -- 72
2020-04-03 09:00:00 5.9 5 Norte 12 Nordeste 0 -- -- 81
2020-04-03 08:00:00 4.7 6 Nordeste 11 Nordeste 0 -- -- 88
2020-04-03 07:00:00 4.3 8 Nordeste 10 Nordeste 0 -- -- 89
2020-04-03 06:00:00 5.4 5 Nordeste 17 Nordeste 0 -- -- 85
2020-04-03 05:00:00 5.9 12 Nordeste 15 Nordeste 0 -- -- 85
2020-04-03 04:00:00 5.6 8 Nordeste 13 Norte 0 -- -- 85
2020-04-03 03:00:00 6.9 10 Norte 12 Norte 0 -- -- 83
2020-04-03 02:00:00 7.7 7 Norte 12 Nordeste 0 -- -- 79
2020-04-03 01:00:00 8.9 7 Norte 13 Nordeste 0 -- -- 78
2020-04-03 00:00:00 9.5 9 Norte 21 Norte 0 -- -- 74
2020-04-02 23:00:00 10.1 10 Norte 19 Norte 0 -- -- 72
2020-04-02 22:00:00 10.2 9 Norte 19 Norte 0 -- -- 72
2020-04-02 21:00:00 10.9 13 Nordeste 26 Norte 0 -- -- 69
2020-04-02 20:00:00 12.1 15 Norte 33 Norte 0 -- -- 66
2020-04-02 19:00:00 12.9 19 Norte 34 Nordeste 0 -- -- 62
2020-04-02 18:00:00 13.6 21 Norte 36 Nordeste 0 -- -- 62
2020-04-02 17:00:00 12.7 15 Nordeste 28 Norte 0 -- -- 67
2020-04-02 16:00:00 13.9 6 Noroeste 24 Norte 0 -- -- 59
2020-04-02 15:00:00 13.6 8 Norte 25 Norte 0 -- -- 62
2020-04-02 14:00:00 13.2 5 Noroeste 21 Norte 0 -- -- 61
2020-04-02 13:00:00 12.7 11 Norte 22 Nordeste 0 -- -- 67
2020-04-02 12:00:00 11.4 8 Este 14 Nordeste 0 -- -- 72
2020-04-02 11:00:00 9.6 5 Este 11 Este 0 -- -- 83
2020-04-02 10:00:00 7 6 Este 14 Nordeste 0 -- -- 96
2020-04-02 09:00:00 4 8 Nordeste 15 Norte 0 -- -- 98
2020-04-02 08:00:00 1.5 6 Norte 7 Norte 0 -- -- 97
2020-04-02 07:00:00 2 3 Este 6 Este 0 -- -- 97
2020-04-02 06:00:00 2.7 3 Sudeste 7 Sudeste 0 -- -- 97
2020-04-02 05:00:00 2.3 3 Sudeste 10 Sudeste 0 -- -- 94
2020-04-02 04:00:00 2.4 2 Sur 9 Sur 0 -- -- 90
2020-04-02 03:00:00 3.2 0 Calma 2 Sur 0 -- -- 92
2020-04-02 02:00:00 3.2 0 Calma -- -- 0 -- -- 89
2020-04-02 01:00:00 4.5 0 Calma 3 Noroeste 0 -- -- 87
2020-04-02 00:00:00 5.6 0 Calma 4 Noroeste 0 -- -- 86
2020-04-01 23:00:00 6.5 3 Norte 5 Noroeste 0 -- -- 84
2020-04-01 22:00:00 7.7 4 Noroeste 6 Noroeste 0 -- -- 83
2020-04-01 21:00:00 9.2 3 Noroeste 9 Noroeste 0 -- -- 78
2020-04-01 20:00:00 11.5 5 Noroeste 19 Oeste 0 -- -- 70
2020-04-01 19:00:00 12.6 9 Noroeste 23 Noroeste 0 -- -- 64
2020-04-01 18:00:00 12.3 13 Oeste 28 Noroeste 0 -- -- 69
2020-04-01 17:00:00 13 9 Oeste 34 Sudoeste 0 -- -- 60
2020-04-01 16:00:00 12.1 10 Oeste 20 Oeste 0 -- -- 66
2020-04-01 15:00:00 12.3 8 Noroeste 20 Noroeste 0 -- -- 77
2020-04-01 14:00:00 9.5 0 Calma 33 Sudoeste 0.2 -- -- 81
2020-04-01 13:00:00 10.5 9 Sudoeste 17 Sudoeste 0 -- -- 79
2020-04-01 12:00:00 9.7 10 Sudoeste 18 Sudoeste 0 -- -- 87
2020-04-01 11:00:00 9.2 10 Sudoeste 16 Sudoeste 0 -- -- 96
2020-04-01 10:00:00 8.3 9 Sur 14 Sur 0 -- -- 100
2020-04-01 09:00:00 7 6 Sur 12 Sudeste 0 -- -- 100
2020-04-01 08:00:00 6.1 6 Sudeste 10 Sudeste 0 -- -- 100
2020-04-01 07:00:00 6.7 7 Sur 12 Sudeste 0.2 -- -- 99
2020-04-01 06:00:00 6.8 6 Sudeste 14 Sur 0 -- -- 99
2020-04-01 05:00:00 7.3 6 Sur 18 Sur 0 -- -- 98
2020-04-01 04:00:00 7.4 10 Sur 15 Sur 0 -- -- 98
2020-04-01 03:00:00 7.5 6 Sudeste 19 Sudeste 0 -- -- 97
2020-04-01 02:00:00 7.5 10 Sudeste 18 Sudeste 0 -- -- 97
2020-04-01 01:00:00 7.4 8 Sudeste 20 Sudeste 0 -- -- 97
2020-04-01 00:00:00 7.8 13 Sudeste 28 Sudeste 0.6 -- -- 97
2020-03-31 23:00:00 8.3 15 Sudeste 25 Sudeste 2.8 -- -- 97
2020-03-31 22:00:00 8.2 5 Norte 9 Oeste 5.6 -- -- 96
2020-03-31 21:00:00 9.7 7 Sudoeste 16 Sur 2 -- -- 94
2020-03-31 20:00:00 10.7 13 Sur 20 Sudeste 0 -- -- 91
2020-03-31 19:00:00 10.8 11 Sur 24 Sudoeste 0 -- -- 88
2020-03-31 18:00:00 10.2 13 Sudoeste 41 Sudoeste 1.8 -- -- 94
2020-03-31 17:00:00 11.7 17 Sudeste 32 Sudeste 0 -- -- 88
2020-03-31 16:00:00 12.1 23 Sudeste 50 Sudeste 1 -- -- 91
2020-03-31 15:00:00 11.1 24 Sudeste 41 Sudeste 0.2 -- -- 87
2020-03-31 14:00:00 11.2 26 Sur 45 Sudeste 0 -- -- 85
2020-03-31 13:00:00 10.9 31 Sudeste 51 Sudeste 0 -- -- 88
2020-03-31 12:00:00 7.4 24 Sudeste 40 Sudeste 0.8 -- -- 97
2020-03-31 11:00:00 5.9 22 Sudeste 41 Este 0.6 -- -- 98
2020-03-31 10:00:00 5.2 18 Sudeste 34 Este 1.2 -- -- 99
2020-03-31 09:00:00 4.6 17 Sudeste 34 Sudeste 1 -- -- 99
2020-03-31 08:00:00 4.4 17 Sudeste 33 Sudeste 0.6 -- -- 99
2020-03-31 07:00:00 4.1 17 Sudeste 32 Sudeste 1.2 -- -- 100
2020-03-31 06:00:00 2.8 11 Nordeste 21 Nordeste 0.8 -- -- 100
2020-03-31 05:00:00 2 13 Nordeste 24 Nordeste 0.2 -- -- 99
2020-03-31 04:00:00 1.8 17 Nordeste 30 Nordeste 0 -- -- 99
2020-03-31 03:00:00 1.7 18 Nordeste 28 Nordeste 0 -- -- 99
2020-03-31 02:00:00 1.7 19 Nordeste 28 Nordeste 0 -- -- 99
2020-03-31 01:00:00 1.6 15 Nordeste 28 Nordeste 0.6 -- -- 99
2020-03-31 00:00:00 1.4 18 Nordeste 26 Nordeste 1.2 -- -- 98
2020-03-30 23:00:00 1.1 17 Nordeste 27 Nordeste 1.8 -- -- 98
2020-03-30 22:00:00 0.8 15 Nordeste 33 Nordeste 0.8 -- -- 94
2020-03-30 21:00:00 2.5 25 Nordeste 35 Nordeste 0 -- -- 90
2020-03-30 20:00:00 3.6 21 Nordeste 35 Nordeste 0 -- -- 82
2020-03-30 19:00:00 4.4 24 Nordeste 34 Norte 0 -- -- 76
2020-03-30 18:00:00 5.3 24 Nordeste 38 Nordeste 0 -- -- 75
2020-03-30 17:00:00 6.7 22 Nordeste 36 Norte 0 -- -- 70
2020-03-30 16:00:00 8.2 28 Norte 39 Norte 0 -- -- 63
2020-03-30 15:00:00 10.1 22 Nordeste 32 Nordeste 0 -- -- 57
2020-03-30 14:00:00 9.6 21 Nordeste 31 Nordeste 0 -- -- 62
2020-03-30 13:00:00 8.7 19 Nordeste 37 Nordeste 0.2 -- -- 66
2020-03-30 12:00:00 7.6 27 Nordeste 37 Nordeste 0 -- -- 70
2020-03-30 11:00:00 5.8 24 Nordeste 36 Nordeste 0.2 -- -- 79
2020-03-30 10:00:00 6.9 20 Nordeste 27 Nordeste 0 -- -- 75
2020-03-30 09:00:00 5.8 12 Nordeste 17 Nordeste 0 -- -- 77
2020-03-30 08:00:00 6.4 12 Norte 20 Nordeste 0 -- -- 75
2020-03-30 07:00:00 6.8 8 Nordeste 20 Nordeste 0 -- -- 76
2020-03-30 06:00:00 6.9 10 Nordeste 19 Nordeste 0 -- -- 74
2020-03-30 05:00:00 7.2 11 Nordeste 17 Nordeste 0 -- -- 74
2020-03-30 04:00:00 7.7 11 Nordeste 14 Nordeste 0 -- -- 73
2020-03-30 03:00:00 8.4 5 Noroeste 11 Oeste 0 -- -- 74
2020-03-30 02:00:00 8.6 2 Oeste 8 Noroeste 0 -- -- 71
2020-03-30 01:00:00 7.8 0 Calma 9 Oeste 0 -- -- 71
2020-03-30 00:00:00 9 5 Oeste 12 Oeste 0 -- -- 64
2020-03-29 23:00:00 9.9 5 Oeste 8 Oeste 0 -- -- 57
2020-03-29 22:00:00 12 3 Oeste 8 Oeste 0 -- -- 54
2020-03-29 21:00:00 13.6 4 Oeste 9 Oeste 0 -- -- 48
2020-03-29 20:00:00 16.4 6 Oeste 13 Oeste 0 -- -- 39
2020-03-29 19:00:00 17.4 4 Sudoeste 15 Oeste 0 -- -- 37
2020-03-29 18:00:00 17.1 5 Norte 17 Oeste 0 -- -- 37
2020-03-29 17:00:00 17.1 5 Norte 15 Noroeste 0 -- -- 38
2020-03-29 16:00:00 17.1 7 Sudoeste 19 Noroeste 0 -- -- 38
2020-03-29 15:00:00 16.4 8 Oeste 18 Oeste 0 -- -- 40
2020-03-29 14:00:00 15.8 9 Noroeste 18 Oeste 0 -- -- 42
2020-03-29 13:00:00 15 7 Noroeste 14 Noroeste 0 -- -- 51
2020-03-29 12:00:00 13.7 5 Noroeste 14 Noroeste 0 -- -- 53
2020-03-29 11:00:00 11.6 3 Sudoeste 7 Oeste 0 -- -- 62
2020-03-29 10:00:00 8.4 3 Sudeste 5 Sudeste 0 -- -- 80
2020-03-29 09:00:00 2.4 4 Sudeste 6 Sudeste 0 -- -- 93
2020-03-29 08:00:00 0.4 4 Sudeste 6 Sudeste 0 -- -- 90
2020-03-29 07:00:00 1.2 4 Sudeste 6 Sudeste 0 -- -- 90
2020-03-29 06:00:00 1.2 4 Sudeste 6 Sudeste 0 -- -- 89
2020-03-29 05:00:00 1.9 4 Sudeste 6 Sudeste 0 -- -- 83
2020-03-29 03:00:00 4.1 5 Sudeste 9 Sudeste 0 -- -- 81
2020-03-29 01:00:00 4.3 5 Sudeste 7 Sur 0 -- -- 76
2020-03-29 00:00:00 5.5 5 Sudeste 9 Sur 0 -- -- 73
2020-03-28 23:00:00 6 2 Sur 5 Sur 0 -- -- 68
2020-03-28 22:00:00 6.7 5 Sudoeste 10 Sudoeste 0 -- -- 66
2020-03-28 21:00:00 7.9 4 Oeste 6 Noroeste 0 -- -- 64
2020-03-28 20:00:00 9.9 4 Sudoeste 10 Sudoeste 0 -- -- 59
2020-03-28 19:00:00 13.3 4 Sudoeste 9 Sur 0 -- -- 47
2020-03-28 18:00:00 14.4 5 Sur 12 Sur 0 -- -- 42
2020-03-28 17:00:00 14.3 8 Sudeste 17 Sudeste 0 -- -- 46
2020-03-28 16:00:00 14 10 Sudeste 22 Sudeste 0 -- -- 48
2020-03-28 15:00:00 13.7 12 Este 23 Este 0 -- -- 52
2020-03-28 14:00:00 13.2 14 Este 25 Este 0 -- -- 52
2020-03-28 13:00:00 12.3 9 Este 24 Este 0 -- -- 48
2020-03-28 12:00:00 11.2 8 Sudeste 18 Este 0 -- -- 49
2020-03-28 11:00:00 9.7 9 Este 19 Este 0 -- -- 56
2020-03-28 10:00:00 8.1 12 Este 17 Este 0 -- -- 63
2020-03-28 09:00:00 4.7 13 Nordeste 17 Este 0 -- -- 95
2020-03-28 08:00:00 1 8 Nordeste 10 Nordeste 0 -- -- 98
2020-03-28 07:00:00 -0.6 5 Nordeste 11 Nordeste 0 -- -- 96
2020-03-28 06:00:00 0 9 Nordeste 13 Nordeste 0 -- -- 97
2020-03-28 05:00:00 0.3 9 Nordeste 13 Nordeste 0 -- -- 96
2020-03-28 04:00:00 0.4 9 Nordeste 12 Nordeste 0 -- -- 96
2020-03-28 03:00:00 0.8 11 Este 13 Este 0 -- -- 93
2020-03-28 02:00:00 1.2 8 Este 14 Este 0 -- -- 93
2020-03-28 01:00:00 1.6 10 Este 14 Este 0 -- -- 95
2020-03-28 00:00:00 1.5 9 Este 20 Este 0 -- -- 91
2020-03-27 23:00:00 2.7 12 Este 18 Este 0 -- -- 92
2020-03-27 22:00:00 2 8 Este 13 Este 0 -- -- 91
2020-03-27 21:00:00 4 9 Este 20 Este 0 -- -- 87
2020-03-27 20:00:00 5.3 13 Sudeste 23 Este 0 -- -- 82
2020-03-27 19:00:00 7.1 12 Sudeste 27 Este 0 -- -- 76
2020-03-27 18:00:00 8.2 18 Este 29 Sudeste 0 -- -- 72
2020-03-27 17:00:00 8.3 17 Este 36 Este 0 -- -- 71
2020-03-27 16:00:00 8.9 22 Este 37 Este 0 -- -- 71
2020-03-27 15:00:00 7.9 28 Este 45 Este 0 -- -- 75
2020-03-27 14:00:00 5.6 23 Este 39 Este 0 -- -- 86
2020-03-27 13:00:00 4.6 28 Este 41 Este 0 -- -- 90
2020-03-27 12:00:00 2.7 18 Nordeste 30 Nordeste 0 -- -- 94
2020-03-27 11:00:00 2.7 19 Nordeste 36 Nordeste 0 -- -- 94
2020-03-27 10:00:00 2.5 23 Nordeste 33 Nordeste 0 -- -- 94
2020-03-27 09:00:00 2.7 24 Nordeste 40 Nordeste 0.2 -- -- 93
2020-03-27 08:00:00 2.7 24 Nordeste 34 Nordeste 0 -- -- 88
2020-03-27 07:00:00 4 22 Nordeste 32 Nordeste 0 -- -- 78
2020-03-27 06:00:00 4.2 19 Nordeste 26 Este 0 -- -- 86
2020-03-27 05:00:00 4.2 13 Este 22 Este 0 -- -- 84
2020-03-27 04:00:00 4.8 14 Este 21 Este 0 -- -- 82
2020-03-27 03:00:00 5.4 12 Este 22 Sudeste 0 -- -- 76
2020-03-27 02:00:00 5.8 14 Este 24 Este 0 -- -- 66
2020-03-27 01:00:00 5 12 Este 16 Nordeste 0 -- -- 73
2020-03-27 00:00:00 3.6 13 Nordeste 16 Nordeste 0 -- -- 74
2020-03-26 23:00:00 3.3 9 Este 12 Este 0 -- -- 74
2020-03-26 22:00:00 6 5 Nordeste 21 Nordeste 0 -- -- 64
2020-03-26 21:00:00 7.9 14 Nordeste 22 Nordeste 0 -- -- 54
2020-03-26 20:00:00 9.3 14 Nordeste 22 Norte 0 -- -- 51
2020-03-26 19:00:00 11.7 18 Norte 28 Norte 0 -- -- 41
2020-03-26 18:00:00 13.6 13 Norte 27 Norte 0 -- -- 40
2020-03-26 17:00:00 14.7 14 Norte 27 Norte 0 -- -- 35
2020-03-26 16:00:00 14.9 16 Norte 28 Norte 0 -- -- 33
2020-03-26 15:00:00 15 11 Noroeste 24 Norte 0 -- -- 34
2020-03-26 14:00:00 13.9 11 Norte 22 Noroeste 0 -- -- 42
2020-03-26 13:00:00 12.7 10 Noroeste 21 Noroeste 0 -- -- 34
2020-03-26 12:00:00 11.1 9 Noroeste 18 Norte 0 -- -- 38
2020-03-26 11:00:00 9.7 5 Nordeste 19 Nordeste 0 -- -- 44
2020-03-26 10:00:00 8 13 Nordeste 22 Este 0 -- -- 59
2020-03-26 09:00:00 6.3 10 Nordeste 16 Nordeste 0 -- -- 68
2020-03-26 08:00:00 4 12 Nordeste 17 Nordeste 0 -- -- 62
2020-03-26 07:00:00 3.4 10 Norte 18 Norte 0 -- -- 67
2020-03-26 06:00:00 3.5 10 Norte 13 Norte 0 -- -- 93
2020-03-26 05:00:00 5 4 Noroeste 12 Noroeste 0 -- -- 94
2020-03-26 04:00:00 5.7 5 Noroeste 13 Noroeste 0 -- -- 93
2020-03-26 03:00:00 6.4 5 Noroeste 14 Oeste 0 -- -- 91
2020-03-26 02:00:00 7 6 Oeste 19 Oeste 0 -- -- 89
2020-03-26 01:00:00 7.2 10 Sudoeste 19 Sudoeste 0 -- -- 90
2020-03-26 00:00:00 8.3 6 Oeste 15 Oeste 0 -- -- 87
2020-03-25 23:00:00 8.6 4 Noroeste 12 Norte 0 -- -- 84
2020-03-25 22:00:00 9.4 5 Noroeste 20 Oeste 0 -- -- 81
2020-03-25 21:00:00 11.2 10 Oeste 21 Oeste 0 -- -- 76
2020-03-25 20:00:00 12.2 9 Oeste 18 Oeste 0 -- -- 67
2020-03-25 19:00:00 14.7 9 Oeste 25 Oeste 0 -- -- 57
2020-03-25 18:00:00 15.4 12 Oeste 25 Oeste 0 -- -- 53
2020-03-25 17:00:00 15.7 10 Oeste 21 Noroeste 0 -- -- 49
2020-03-25 16:00:00 15.6 8 Noroeste 21 Oeste 0 -- -- 47
2020-03-25 15:00:00 15.1 5 Sudoeste 17 Noroeste 0 -- -- 54
2020-03-25 14:00:00 13.9 5 Sudoeste 15 Oeste 0 -- -- 59
2020-03-25 13:00:00 12.4 7 Sudoeste 20 Sudoeste 0 -- -- 62
2020-03-25 12:00:00 11.3 10 Sudoeste 21 Sudoeste 0 -- -- 66
2020-03-25 11:00:00 10 12 Sur 19 Sur 0 -- -- 72
2020-03-25 10:00:00 8.3 11 Sur 18 Sur 0 -- -- 81
2020-03-25 09:00:00 6.6 5 Sudeste 10 Sur 0 -- -- 94
2020-03-25 08:00:00 3.4 4 Sudeste 6 Sudeste 0 -- -- 98
2020-03-25 07:00:00 2.8 2 Sudeste 4 Nordeste 0 -- -- 95
2020-03-25 06:00:00 3.3 4 Nordeste 9 Sur 0 -- -- 93
2020-03-25 05:00:00 4.9 6 Sur 10 Sur 0 -- -- 93
2020-03-25 04:00:00 5.9 6 Sur 12 Sur 0 -- -- 93
2020-03-25 03:00:00 6.2 9 Sur 18 Sudeste 0 -- -- 91
2020-03-25 02:00:00 6.8 11 Sur 18 Sudeste 0 -- -- 89
2020-03-25 01:00:00 7 11 Sur 21 Sur 0 -- -- 87
2020-03-25 00:00:00 7.3 6 Sur 19 Sudeste 0 -- -- 87
2020-03-24 23:00:00 8 13 Sudeste 23 Sudeste 0 -- -- 83
2020-03-24 22:00:00 8.5 10 Sudeste 15 Sudeste 0 -- -- 83
2020-03-24 21:00:00 9 10 Sudeste 23 Sudeste 0 -- -- 79
2020-03-24 20:00:00 9.9 15 Sudeste 24 Sudeste 0 -- -- 78
2020-03-24 19:00:00 10.8 9 Sudeste 18 Sudeste 0 -- -- 75
2020-03-24 18:00:00 11.5 13 Sudeste 30 Sudeste 0 -- -- 68
2020-03-24 17:00:00 12.8 19 Sudeste 31 Sudeste 0 -- -- 66
2020-03-24 16:00:00 13.8 19 Sudeste 33 Este 0.2 -- -- 63
2020-03-24 15:00:00 12.8 17 Este 32 Este 0 -- -- 71
2020-03-24 14:00:00 12 22 Este 40 Este 0 -- -- 71
2020-03-24 13:00:00 12.2 15 Este 26 Este 0 -- -- 76
2020-03-24 12:00:00 11 17 Este 33 Este 0 -- -- 81
2020-03-24 11:00:00 11.7 22 Nordeste 33 Este 0 -- -- 78
2020-03-24 10:00:00 8.7 16 Nordeste 23 Nordeste 0 -- -- 90
2020-03-24 09:00:00 7.9 14 Nordeste 20 Nordeste 0 -- -- 91
2020-03-24 08:00:00 7.3 12 Nordeste 22 Nordeste 0 -- -- 92
2020-03-24 07:00:00 7.4 15 Nordeste 23 Nordeste 0 -- -- 91
2020-03-24 06:00:00 7.4 13 Nordeste 21 Nordeste 0.2 -- -- 92
2020-03-24 05:00:00 7.8 15 Nordeste 21 Nordeste 0 -- -- 91
2020-03-24 04:00:00 7.7 13 Nordeste 20 Nordeste 0.2 -- -- 92
2020-03-24 03:00:00 8 13 Nordeste 16 Nordeste 0 -- -- 89
2020-03-24 02:00:00 8 12 Este 16 Este 0 -- -- 90
2020-03-24 01:00:00 8.2 12 Este 20 Este 0 -- -- 89
2020-03-24 00:00:00 8.5 14 Este 24 Este 0 -- -- 87
2020-03-23 23:00:00 8 13 Este 23 Este 0 -- -- 88
2020-03-23 22:00:00 9.3 17 Este 25 Este 0 -- -- 84
2020-03-23 21:00:00 8.8 13 Este 24 Este 0 -- -- 88
2020-03-23 20:00:00 9 16 Este 27 Este 0 -- -- 87
2020-03-23 19:00:00 10.3 14 Este 32 Este 0 -- -- 80
2020-03-23 18:00:00 11.4 21 Este 42 Este 0 -- -- 79
2020-03-23 17:00:00 12.6 32 Este 44 Este 0 -- -- 76
2020-03-23 16:00:00 10.4 30 Este 51 Este 0.4 -- -- 81
2020-03-23 15:00:00 13.6 19 Sudeste 31 Sudeste 0.2 -- -- 70
2020-03-23 14:00:00 13.2 15 Este 28 Este 0 -- -- 78
2020-03-23 13:00:00 9.1 11 Nordeste 23 Sur 0.2 -- -- 90
2020-03-23 12:00:00 9.3 14 Sudeste 26 Nordeste 0.4 -- -- 92
2020-03-23 11:00:00 9.7 17 Nordeste 26 Este 0.2 -- -- 95
2020-03-23 10:00:00 8.4 15 Nordeste 23 Este 0.2 -- -- 97
2020-03-23 09:00:00 7.4 13 Nordeste 20 Nordeste 0 -- -- 98
2020-03-23 08:00:00 6.9 13 Nordeste 23 Nordeste 0 -- -- 98
2020-03-23 07:00:00 7.1 15 Nordeste 21 Nordeste 0 -- -- 98
2020-03-23 06:00:00 7 9 Este 15 Este 0 -- -- 98
2020-03-23 05:00:00 7 10 Este 15 Este 0 -- -- 97
2020-03-23 04:00:00 7.2 11 Este 20 Este 0 -- -- 97
2020-03-23 03:00:00 7.3 12 Este 26 Sudeste 0.4 -- -- 97
2020-03-23 02:00:00 7.2 10 Este 18 Este 0 -- -- 98
2020-03-23 01:00:00 7.2 12 Este 17 Este 0 -- -- 98
2020-03-23 00:00:00 7.3 11 Nordeste 15 Nordeste 0 -- -- 97
2020-03-22 23:00:00 7.8 11 Este 15 Este 0.2 -- -- 96
2020-03-22 22:00:00 7.9 10 Este 15 Nordeste 0.4 -- -- 96
2020-03-22 21:00:00 7.9 6 Nordeste 13 Este 0.4 -- -- 95
2020-03-22 20:00:00 8.5 8 Este 17 Sur 0 -- -- 90
2020-03-22 19:00:00 9.8 6 Este 10 Nordeste 0 -- -- 84
2020-03-22 18:00:00 9.9 7 Nordeste 13 Sudeste 0 -- -- 83
2020-03-22 17:00:00 10.4 10 Sudeste 24 Sudeste 1 -- -- 84
2020-03-22 16:00:00 8.6 19 Sudeste 30 Sudeste 0.4 -- -- 89
2020-03-22 15:00:00 11.8 10 Norte 28 Este 0 -- -- 69
2020-03-22 14:00:00 10.8 17 Este 24 Este 0.2 -- -- 78
2020-03-22 13:00:00 12.3 8 Sudeste 17 Norte 0 -- -- 68
2020-03-22 12:00:00 10.7 9 Nordeste 17 Nordeste 0 -- -- 73
2020-03-22 11:00:00 9.7 8 Este 16 Este 0 -- -- 83
2020-03-22 10:00:00 7 11 Nordeste 16 Nordeste 0 -- -- 97
2020-03-22 09:00:00 5.1 9 Nordeste 13 Nordeste 0 -- -- 99
2020-03-22 08:00:00 2.8 4 Este 8 Nordeste 0 -- -- 99
2020-03-22 07:00:00 3.3 5 Nordeste 17 Este 0 -- -- 98
2020-03-22 06:00:00 4.2 14 Este 19 Este 0 -- -- 98
2020-03-22 05:00:00 4.3 9 Este 17 Este 0 -- -- 98
2020-03-22 04:00:00 4.3 10 Este 19 Sudeste 0 -- -- 98
2020-03-22 03:00:00 3.8 9 Este 15 Sudeste 0 -- -- 97
2020-03-22 02:00:00 3.4 8 Este 12 Este 0 -- -- 96
2020-03-22 01:00:00 4.6 6 Este 12 Sudeste 0 -- -- 95
2020-03-22 00:00:00 5.2 7 Este 14 Este 0 -- -- 95
2020-03-21 23:00:00 5.8 10 Este 22 Este 0 -- -- 94
2020-03-21 22:00:00 6.4 14 Este 21 Este 0 -- -- 93
2020-03-21 21:00:00 7.1 11 Sudeste 18 Este 0 -- -- 90
2020-03-21 20:00:00 7.8 9 Este 14 Este 0 -- -- 87
2020-03-21 19:00:00 8.5 8 Sudeste 14 Sudeste 0 -- -- 83
2020-03-21 18:00:00 8.9 6 Este 10 Este 0 -- -- 80
2020-03-21 17:00:00 9.1 5 Sur 12 Sur 0 -- -- 79
2020-03-21 16:00:00 9.4 8 Sur 17 Sur 0 -- -- 76
2020-03-21 15:00:00 9.3 9 Sur 18 Sudoeste 0 -- -- 78
2020-03-21 14:00:00 8.7 10 Sudoeste 17 Sudoeste 0 -- -- 86
2020-03-21 13:00:00 8.6 8 Oeste 27 Sudoeste 0 -- -- 86
2020-03-21 12:00:00 8.3 18 Sudoeste 26 Sudoeste 0 -- -- 87
2020-03-21 11:00:00 8.5 16 Sudoeste 27 Sudeste 0 -- -- 93
2020-03-21 10:00:00 8.5 17 Sudeste 28 Sudeste 0.2 -- -- 94
2020-03-21 09:00:00 7.9 15 Sudeste 31 Sudeste 0.2 -- -- 94
2020-03-21 08:00:00 7.5 16 Sudeste 31 Sudeste 0 -- -- 94
2020-03-21 07:00:00 7 16 Sudeste 26 Sudeste 0 -- -- 94
2020-03-21 06:00:00 6.9 15 Este 26 Este 0 -- -- 94
2020-03-21 05:00:00 6.8 15 Este 30 Sudeste 0 -- -- 94
2020-03-21 04:00:00 6.5 19 Sudeste 32 Sudeste 0 -- -- 95
2020-03-21 03:00:00 6 16 Sudeste 30 Sudeste 0 -- -- 93
2020-03-21 02:00:00 6.4 17 Sudeste 33 Sudeste 0 -- -- 90
2020-03-21 01:00:00 6.7 20 Sudeste 31 Sudeste 0 -- -- 89
2020-03-21 00:00:00 7.1 21 Sudeste 35 Sudeste 0 -- -- 88
2020-03-20 23:00:00 7 13 Sudeste 20 Sudeste 0 -- -- 93
2020-03-20 22:00:00 7.2 12 Este 21 Este 0 -- -- 92
2020-03-20 21:00:00 8 14 Este 26 Este 0 -- -- 90
2020-03-20 20:00:00 9 15 Este 35 Este 0 -- -- 85
2020-03-20 19:00:00 10.6 20 Este 39 Este 0 -- -- 80
2020-03-20 18:00:00 12.1 23 Este 38 Sudeste 0 -- -- 75
2020-03-20 17:00:00 13.4 22 Este 35 Este 0 -- -- 68
2020-03-20 16:00:00 12.9 21 Sudeste 35 Este 0 -- -- 70
2020-03-20 15:00:00 13.3 21 Sudeste 35 Sudeste 0 -- -- 70
2020-03-20 14:00:00 12.6 21 Sudeste 33 Este 0 -- -- 71
2020-03-20 13:00:00 12.1 21 Sudeste 38 Este 0 -- -- 74
2020-03-20 12:00:00 12.1 26 Sudeste 40 Sudeste 0 -- -- 72
2020-03-20 11:00:00 11.2 23 Sudeste 40 Sudeste 0 -- -- 77
2020-03-20 10:00:00 9.7 23 Sudeste 39 Sudeste 0 -- -- 84
2020-03-20 09:00:00 8.1 20 Sudeste 34 Sudeste 0 -- -- 90
2020-03-20 08:00:00 7 13 Sudeste 23 Sudeste 0 -- -- 93
2020-03-20 07:00:00 6.5 13 Sudeste 26 Sudeste 0 -- -- 94
2020-03-20 06:00:00 6.5 9 Este 26 Sudeste 0 -- -- 92
2020-03-20 05:00:00 7.1 13 Este 23 Este 0 -- -- 90
2020-03-20 04:00:00 7.3 16 Este 22 Este 0 -- -- 93
2020-03-20 03:00:00 7.3 14 Este 22 Este 0 -- -- 93
2020-03-20 02:00:00 7.5 13 Este 21 Sudeste 0 -- -- 92
2020-03-20 01:00:00 8.3 15 Este 27 Este 0 -- -- 90
2020-03-20 00:00:00 8.7 16 Este 27 Este 0 -- -- 89
2020-03-19 23:00:00 8.9 14 Este 25 Este 0 -- -- 88
2020-03-19 22:00:00 9.5 13 Este 29 Sudeste 0 -- -- 84
2020-03-19 21:00:00 10.4 15 Sudeste 30 Sudeste 0 -- -- 79
2020-03-19 20:00:00 11.1 16 Sudeste 31 Sudeste 0 -- -- 77
2020-03-19 19:00:00 12 20 Sudeste 31 Sudeste 0 -- -- 74
2020-03-19 18:00:00 13.3 18 Sudeste 35 Este 0 -- -- 69
2020-03-19 17:00:00 13.9 21 Este 30 Este 0 -- -- 67
2020-03-19 16:00:00 14.4 19 Este 31 Este 0 -- -- 66
2020-03-19 15:00:00 14.3 20 Sudeste 33 Este 0 -- -- 66
2020-03-19 14:00:00 13.9 19 Sudeste 31 Este 0 -- -- 69
2020-03-19 13:00:00 13 18 Sudeste 33 Este 0 -- -- 73
2020-03-19 12:00:00 12.5 22 Este 33 Sudeste 0 -- -- 73
2020-03-19 11:00:00 11.4 18 Sudeste 31 Este 0 -- -- 77
2020-03-19 10:00:00 9.4 21 Este 30 Este 0 -- -- 84
2020-03-19 09:00:00 7.2 17 Este 26 Este 0 -- -- 92
2020-03-19 08:00:00 5 13 Este 19 Este 0 -- -- 96
2020-03-19 07:00:00 5.2 13 Este 21 Este 0 -- -- 94
2020-03-19 06:00:00 5.9 13 Sudeste 29 Sudeste 0 -- -- 92
2020-03-19 05:00:00 6.4 18 Sudeste 26 Sudeste 0 -- -- 93
2020-03-19 04:00:00 5.9 10 Este 15 Sudeste 0 -- -- 95
2020-03-19 03:00:00 6.4 6 Este 20 Sudeste 0 -- -- 92
2020-03-19 02:00:00 7.2 8 Este 24 Sudeste 0 -- -- 91
2020-03-19 01:00:00 8 12 Sudeste 23 Sudeste 0 -- -- 87
2020-03-19 00:00:00 8.3 12 Sudeste 21 Sudeste 0 -- -- 83
2020-03-18 23:00:00 9.5 12 Sudeste 21 Sudeste 0 -- -- 79
2020-03-18 22:00:00 10.2 10 Sudeste 19 Este 0 -- -- 81
2020-03-18 21:00:00 10.7 12 Este 16 Este 0 -- -- 82
2020-03-18 20:00:00 10.3 8 Nordeste 9 Nordeste 0 -- -- 86
2020-03-18 19:00:00 12.3 6 Este 16 Sudeste 0 -- -- 79
2020-03-18 18:00:00 13.7 10 Este 20 Este 0 -- -- 74
2020-03-18 17:00:00 14.3 12 Este 22 Este 0 -- -- 73
2020-03-18 16:00:00 14 14 Este 27 Este 0 -- -- 74
2020-03-18 15:00:00 13.9 17 Este 30 Este 0 -- -- 74
2020-03-18 14:00:00 13 20 Sudeste 31 Sudeste 0 -- -- 72
2020-03-18 13:00:00 12.2 19 Este 29 Este 0 -- -- 76
2020-03-18 12:00:00 11.1 19 Este 29 Este 0 -- -- 79
2020-03-18 11:00:00 10 12 Este 19 Este 0 -- -- 82
2020-03-18 10:00:00 9.3 10 Este 19 Este 0 -- -- 86
2020-03-18 09:00:00 8 8 Este 16 Este 0 -- -- 90
2020-03-18 08:00:00 6.7 6 Este 17 Este 0 -- -- 91
2020-03-18 07:00:00 5.9 7 Este 12 Este 0 -- -- 93
2020-03-18 06:00:00 5.8 8 Este 9 Este 0 -- -- 95
2020-03-18 05:00:00 6 3 Sudeste 5 Sudeste 0 -- -- 96
2020-03-18 04:00:00 6.4 6 Este 16 Nordeste 0 -- -- 95
2020-03-18 03:00:00 7.3 8 Este 14 Este 0 -- -- 93
2020-03-18 02:00:00 7.7 11 Este 14 Este 0 -- -- 91
2020-03-18 01:00:00 8.8 8 Este 18 Este 0 -- -- 87
2020-03-18 00:00:00 9.7 12 Este 17 Este 0 -- -- 87
2020-03-17 23:00:00 10.2 9 Este 19 Este 0 -- -- 88
2020-03-17 22:00:00 11.8 10 Este 25 Este 0 -- -- 83
2020-03-17 21:00:00 11.5 13 Este 20 Este 0 -- -- 85
2020-03-17 20:00:00 11.5 9 Este 23 Este 0 -- -- 86
2020-03-17 19:00:00 12.5 16 Este 37 Este 0 -- -- 80
2020-03-17 18:00:00 14.3 26 Este 42 Este 0 -- -- 74
2020-03-17 17:00:00 15.4 25 Este 40 Sudeste 0 -- -- 71
2020-03-17 16:00:00 15.3 24 Este 39 Sudeste 0 -- -- 68
2020-03-17 15:00:00 14.5 25 Sudeste 46 Este 0 -- -- 71
2020-03-17 14:00:00 14 30 Este 44 Este 0 -- -- 73
2020-03-17 13:00:00 11.2 19 Este 26 Este 0 -- -- 86
2020-03-17 12:00:00 10.1 16 Nordeste 27 Nordeste 0 -- -- 85
2020-03-17 11:00:00 9.2 19 Nordeste 26 Nordeste 0 -- -- 89
2020-03-17 10:00:00 6.8 14 Nordeste 24 Este 0 -- -- 98
2020-03-17 09:00:00 6 17 Este 25 Este 0 -- -- 98
2020-03-17 08:00:00 5.1 17 Nordeste 26 Nordeste 0 -- -- 98
2020-03-17 07:00:00 4.5 14 Nordeste 22 Nordeste 0 -- -- 97
2020-03-17 06:00:00 3.5 11 Nordeste 17 Nordeste 0 -- -- 97
2020-03-17 05:00:00 2.2 10 Nordeste 16 Nordeste 0 -- -- 97
2020-03-17 04:00:00 2 13 Nordeste 19 Nordeste 0 -- -- 97
2020-03-17 03:00:00 1.2 10 Nordeste 14 Nordeste 0 -- -- 97
2020-03-17 02:00:00 0.4 4 Este 11 Este 0 -- -- 95
2020-03-17 01:00:00 1.2 8 Este 14 Este 0 -- -- 96
2020-03-17 00:00:00 1.2 9 Nordeste 13 Nordeste 0 -- -- 95
2020-03-16 23:00:00 1.4 7 Este 12 Este 0 -- -- 93
2020-03-16 22:00:00 2.5 10 Nordeste 18 Nordeste 0 -- -- 91
2020-03-16 21:00:00 3 7 Sudeste 12 Sudeste 0 -- -- 88
2020-03-16 20:00:00 3.4 6 Este 15 Sur 0 -- -- 83
2020-03-16 19:00:00 5.5 12 Sur 22 Sur 0.2 -- -- 79
2020-03-16 18:00:00 6.3 12 Sur 22 Sudeste 1.8 -- -- 75
2020-03-16 17:00:00 6.9 14 Sudeste 21 Sudeste 2.6 -- -- 68
2020-03-16 16:00:00 5.5 13 Sudeste 22 Sudeste 1.2 -- -- 74
2020-03-16 15:00:00 7.7 8 Sur 19 Sudeste 0 -- -- 72
2020-03-16 14:00:00 7.7 9 Sur 21 Sudeste 0 -- -- 66
2020-03-16 13:00:00 8 9 Sur 20 Sudeste 0 -- -- 71
2020-03-16 12:00:00 6.6 4 Sur 10 Oeste 0.2 -- -- 76
2020-03-16 11:00:00 5.2 6 Oeste 13 Oeste 0 -- -- 80
2020-03-16 10:00:00 4.4 5 Sudoeste 17 Sudoeste 0 -- -- 85
2020-03-16 09:00:00 3.1 14 Sudoeste 22 Oeste 0 -- -- 85
2020-03-16 08:00:00 2 11 Oeste 21 Oeste 0 -- -- 88
2020-03-16 07:00:00 3.2 14 Oeste 30 Noroeste 0 -- -- 85
2020-03-16 06:00:00 4.3 14 Oeste 27 Noroeste 0 -- -- 89
2020-03-16 05:00:00 5.4 12 Noroeste 38 Oeste 3.4 -- -- 94
2020-03-16 04:00:00 6.4 10 Oeste 25 Oeste 2 -- -- 95
2020-03-16 03:00:00 7.2 14 Oeste 31 Oeste 1 -- -- 93
2020-03-16 02:00:00 8 11 Oeste 24 Noroeste 1.8 -- -- 91
2020-03-16 01:00:00 9.9 6 Oeste 15 Sudoeste 1 -- -- 94
2020-03-16 00:00:00 9.8 9 Sudoeste 27 Sudoeste 2 -- -- 93
2020-03-15 23:00:00 10.3 15 Sudoeste 41 Sur 1.2 -- -- 87
2020-03-15 22:00:00 10.3 13 Sur 41 Sudoeste 1.6 -- -- 86
2020-03-15 21:00:00 11.9 27 Sudoeste 57 Sudoeste 0.2 -- -- 78
2020-03-15 20:00:00 13 12 Sur 22 Sudoeste 0 -- -- 85
2020-03-15 19:00:00 14.8 9 Sur 14 Sudeste 0 -- -- 80
2020-03-15 18:00:00 16.9 5 Sudeste 11 Sudeste 0.2 -- -- 72
2020-03-15 17:00:00 16.6 2 Oeste 21 Oeste 0 -- -- 71
2020-03-15 16:00:00 17.8 10 Oeste 19 Oeste 0 -- -- 62
2020-03-15 15:00:00 18.1 11 Oeste 20 Oeste 0 -- -- 57
2020-03-15 14:00:00 17.5 6 Oeste 12 Sudoeste 0 -- -- 63
2020-03-15 13:00:00 18.1 5 Sudoeste 24 Sudoeste 0 -- -- 62
2020-03-15 12:00:00 17.3 16 Sur 27 Sur 0 -- -- 70
2020-03-15 11:00:00 14.3 18 Sudeste 29 Sudeste 0 -- -- 80
2020-03-15 10:00:00 10.2 19 Sudeste 30 Sudeste 0 -- -- 93
2020-03-15 09:00:00 8.9 18 Sudeste 27 Sudeste 0 -- -- 93
2020-03-15 08:00:00 8.2 12 Sudeste 19 Sudeste 0 -- -- 94
2020-03-15 07:00:00 8.8 9 Sudeste 19 Sudeste 0 -- -- 92
2020-03-15 06:00:00 8.8 10 Sudeste 25 Sudeste 0 -- -- 91
2020-03-15 05:00:00 8.7 10 Sudeste 19 Sudeste 0 -- -- 89
2020-03-15 04:00:00 9.2 10 Sudeste 16 Sudeste 0 -- -- 84
2020-03-15 03:00:00 8.6 5 Este 15 Este 0 -- -- 81
2020-03-15 02:00:00 9.7 4 Nordeste 15 Este 0 -- -- 78
2020-03-15 01:00:00 9.1 9 Sudeste 15 Sudeste 0 -- -- 82
2020-03-15 00:00:00 9 8 Este 9 Este 0 -- -- 77
2020-03-14 23:00:00 10.8 5 Nordeste 5 Nordeste 0 -- -- 69
2020-03-14 22:00:00 12.4 4 Norte 5 Norte 0 -- -- 66
2020-03-14 21:00:00 14.2 4 Norte 6 Norte 0 -- -- 60
2020-03-14 20:00:00 16 5 Norte 9 Norte 0 -- -- 57
2020-03-14 19:00:00 19.4 3 Noroeste 8 Sudoeste 0 -- -- 51
2020-03-14 18:00:00 21 6 Sudoeste 9 Oeste 0 -- -- 44
2020-03-14 17:00:00 21.4 3 Noroeste 13 Oeste 0 -- -- 45
2020-03-14 16:00:00 21.3 5 Sudoeste 10 Oeste 0 -- -- 51
2020-03-14 15:00:00 20.5 6 Oeste 13 Oeste 0 -- -- 53
2020-03-14 14:00:00 19.7 6 Sur 19 Nordeste 0 -- -- 58
2020-03-14 13:00:00 18.1 3 Noroeste 13 Sudeste 0 -- -- 58
2020-03-14 12:00:00 16.7 5 Sudeste 15 Sudeste 0 -- -- 64
2020-03-14 11:00:00 14.8 5 Este 12 Sudeste 0 -- -- 69
2020-03-14 10:00:00 12.6 8 Este 13 Sudeste 0 -- -- 76
2020-03-14 09:00:00 8.9 8 Este 13 Este 0 -- -- 90
2020-03-14 08:00:00 7.3 9 Este 17 Este 0 -- -- 92
2020-03-14 07:00:00 5.8 8 Este 13 Sudeste 0 -- -- 91
2020-03-14 06:00:00 7.1 7 Este 20 Sudeste 0 -- -- 90
2020-03-14 05:00:00 8.1 13 Sudeste 21 Sudeste 0 -- -- 89
2020-03-14 04:00:00 8.2 5 Sudeste 17 Sudeste 0 -- -- 86
2020-03-14 03:00:00 9.4 10 Sudeste 18 Sur 0 -- -- 85
2020-03-14 02:00:00 10.3 12 Sur 18 Sur 0 -- -- 83
2020-03-14 01:00:00 10.7 11 Sur 16 Sudeste 0 -- -- 81
2020-03-14 00:00:00 11.3 9 Sur 14 Sudoeste 0 -- -- 80
2020-03-13 23:00:00 12.9 5 Sur 13 Este 0 -- -- 74
2020-03-13 22:00:00 14.1 6 Oeste 12 Oeste 0 -- -- 68
2020-03-13 21:00:00 15.2 4 Noroeste 12 Noroeste 0 -- -- 63
2020-03-13 20:00:00 16.7 6 Noroeste 15 Noroeste 0 -- -- 57
2020-03-13 19:00:00 19.5 8 Noroeste 16 Noroeste 0 -- -- 51
2020-03-13 18:00:00 21.9 8 Oeste 15 Oeste 0 -- -- 45
2020-03-13 17:00:00 22.6 8 Noroeste 16 Oeste 0 -- -- 43
2020-03-13 16:00:00 22.6 10 Noroeste 24 Oeste 0 -- -- 44
2020-03-13 15:00:00 22.4 8 Sudeste 16 Oeste 0 -- -- 44
2020-03-13 14:00:00 21.1 5 Oeste 19 Sudoeste 0 -- -- 49
2020-03-13 13:00:00 20 10 Sudoeste 18 Sudoeste 0 -- -- 49
2020-03-13 12:00:00 19.5 9 Sur 17 Sudoeste 0 -- -- 54
2020-03-13 11:00:00 17.7 5 Oeste 13 Sudoeste 0 -- -- 60
2020-03-13 10:00:00 15.2 6 Sur 11 Sudeste 0 -- -- 71
2020-03-13 09:00:00 10.2 8 Sudeste 12 Sudeste 0 -- -- 79
2020-03-13 08:00:00 8 6 Sudeste 10 Sudeste 0 -- -- 82
2020-03-13 07:00:00 8 4 Sudeste 11 Sudeste 0 -- -- 83
2020-03-13 06:00:00 8.4 4 Sudeste 9 Sudeste 0 -- -- 80
2020-03-13 05:00:00 10.5 2 Sur 4 Sudoeste 0 -- -- 76
2020-03-13 04:00:00 10.7 4 Sudoeste 8 Sudoeste 0 -- -- 72
2020-03-13 03:00:00 11.1 6 Sudoeste 9 Sudoeste 0 -- -- 71
2020-03-13 02:00:00 11.8 4 Sur 9 Oeste 0 -- -- 69
2020-03-13 01:00:00 12.3 7 Sudoeste 11 Sur 0 -- -- 66
2020-03-13 00:00:00 13.5 2 Noroeste 5 Noroeste 0 -- -- 62
2020-03-12 23:00:00 14.9 3 Noroeste 6 Noroeste 0 -- -- 60
2020-03-12 22:00:00 15.2 3 Noroeste 5 Noroeste 0 -- -- 59
2020-03-12 21:00:00 16.7 5 Noroeste 6 Noroeste 0 -- -- 54
2020-03-12 20:00:00 17.7 3 Noroeste 6 Oeste 0 -- -- 55
2020-03-12 19:00:00 20.8 5 Noroeste 13 Oeste 0 -- -- 47
2020-03-12 18:00:00 23.8 5 Noroeste 12 Oeste 0 -- -- 42
2020-03-12 17:00:00 24.2 5 Noroeste 13 Oeste 0 -- -- 42
2020-03-12 16:00:00 25.6 8 Oeste 16 Oeste 0 -- -- 33
2020-03-12 15:00:00 25.8 8 Noroeste 22 Norte 0 -- -- 38
2020-03-12 14:00:00 25.1 8 Sudoeste 20 Sudoeste 0 -- -- 37
2020-03-12 13:00:00 23.5 9 Sur 17 Sur 0 -- -- 44
2020-03-12 12:00:00 20.5 14 Sudeste 23 Sudeste 0 -- -- 51
2020-03-12 11:00:00 18.5 14 Sudeste 23 Sudeste 0 -- -- 56
2020-03-12 10:00:00 15.9 11 Sudeste 17 Sudeste 0 -- -- 61
2020-03-12 09:00:00 11.1 6 Nordeste 9 Nordeste 0 -- -- 74
2020-03-12 08:00:00 8.4 8 Este 11 Sudeste 0 -- -- 77
2020-03-12 07:00:00 8.7 8 Sudeste 15 Sudeste 0 -- -- 73
2020-03-12 06:00:00 11.1 10 Sudeste 21 Este 0 -- -- 67
2020-03-12 05:00:00 11.4 13 Sudeste 19 Sudeste 0 -- -- 67
2020-03-12 04:00:00 10.3 12 Sudeste 17 Este 0 -- -- 73
2020-03-12 03:00:00 10.5 8 Sudeste 13 Sudeste 0 -- -- 75
2020-03-12 02:00:00 10.4 3 Sudeste 7 Este 0 -- -- 73
2020-03-12 01:00:00 11.6 3 Este 8 Este 0 -- -- 70
2020-03-12 00:00:00 12.9 4 Nordeste 5 Nordeste 0 -- -- 66
2020-03-11 23:00:00 15.3 2 Norte 8 Norte 0 -- -- 61
2020-03-11 22:00:00 16.5 5 Noroeste 10 Noroeste 0 -- -- 59
2020-03-11 21:00:00 17.1 5 Noroeste 9 Noroeste 0 -- -- 57
2020-03-11 20:00:00 18.5 6 Norte 8 Noroeste 0 -- -- 52
2020-03-11 19:00:00 21 5 Norte 8 Noroeste 0 -- -- 45
2020-03-11 18:00:00 23.8 4 Noroeste 8 Noroeste 0 -- -- 40
2020-03-11 17:00:00 25.7 3 Oeste 10 Noroeste 0 -- -- 39
2020-03-11 16:00:00 25 5 Oeste 14 Norte 0 -- -- 37
2020-03-11 15:00:00 24.6 3 Norte 9 Noroeste 0 -- -- 40
2020-03-11 14:00:00 23 5 Nordeste 9 Este 0 -- -- 44
2020-03-11 13:00:00 21.8 2 Sur 10 Sur 0 -- -- 45
2020-03-11 12:00:00 20.1 4 Sur 12 Sur 0 -- -- 48
2020-03-11 11:00:00 17.9 8 Sur 13 Sur 0 -- -- 56
2020-03-11 10:00:00 15.1 6 Sudeste 9 Sudeste 0 -- -- 68
2020-03-11 09:00:00 11.3 5 Sudeste 12 Sudeste 0 -- -- 73
2020-03-11 08:00:00 7 7 Sudeste 12 Sudeste 0 -- -- 84
2020-03-11 07:00:00 5.8 5 Sudeste 10 Este 0 -- -- 84
2020-03-11 06:00:00 5.7 6 Sudeste 10 Este 0 -- -- 84
2020-03-11 05:00:00 7.9 2 Sudoeste 6 Sur 0 -- -- 81
2020-03-11 04:00:00 8.5 5 Sur 9 Sur 0 -- -- 75
2020-03-11 03:00:00 8.9 5 Sudoeste 8 Sur 0 -- -- 71
2020-03-11 02:00:00 9.7 5 Sur 9 Sur 0 -- -- 68
2020-03-11 01:00:00 11.3 6 Sudoeste 8 Sudoeste 0 -- -- 66
2020-03-11 00:00:00 12.1 8 Oeste 11 Oeste 0 -- -- 67